createdAt,value
2023-03-08T00:03:42.121Z,90.05
2023-03-08T00:08:43.937Z,89.59
2023-03-08T00:13:45.695Z,89.29
2023-03-08T00:18:47.866Z,89.03
2023-03-08T00:23:52.627Z,89.07
2023-03-08T00:28:54.455Z,89.00
2023-03-08T00:33:56.223Z,88.43
2023-03-08T00:38:58.179Z,88.11
2023-03-08T00:43:59.824Z,87.27
2023-03-08T00:49:04.306Z,87.70
2023-03-08T00:54:06.263Z,87.85
2023-03-08T00:59:07.978Z,88.39
2023-03-08T01:04:10.159Z,88.63
2023-03-08T01:09:12.672Z,88.88
2023-03-08T01:14:14.455Z,88.76
2023-03-08T01:19:16.083Z,87.86
2023-03-08T01:24:17.691Z,85.57
2023-03-08T01:29:20.192Z,79.03
2023-03-08T01:34:21.784Z,78.04
2023-03-08T01:39:23.414Z,74.22
2023-03-08T01:44:25.060Z,74.35
2023-03-08T01:49:33.450Z,74.19
2023-03-08T01:54:47.992Z,71.44
2023-03-08T01:59:51.678Z,72.06
2023-03-08T02:04:53.709Z,71.34
2023-03-08T02:09:55.457Z,69.08
2023-03-08T02:14:57.768Z,70.70
2023-03-08T02:20:13.952Z,68.78
2023-03-08T02:25:17.205Z,69.56
2023-03-08T02:30:25.285Z,69.63
2023-03-08T02:35:29.165Z,69.92
2023-03-08T02:40:30.773Z,70.59
2023-03-08T02:45:34.128Z,68.60
2023-03-08T02:50:39.363Z,70.97
2023-03-08T02:55:42.781Z,71.80
2023-03-08T03:00:46.280Z,72.31
2023-03-08T03:05:47.957Z,72.07
2023-03-08T03:10:54.569Z,71.94
2023-03-08T03:15:56.306Z,71.76
2023-03-08T03:21:03.865Z,71.55
2023-03-08T03:26:06.536Z,71.50
2023-03-08T03:31:12.675Z,71.20
2023-03-08T03:36:17.361Z,71.50
2023-03-08T03:41:21.870Z,71.42
2023-03-08T03:46:27.486Z,71.31
2023-03-08T03:51:32.085Z,70.40
2023-03-08T03:56:58.104Z,70.28
2023-03-08T04:02:02.593Z,69.74
2023-03-08T04:07:12.868Z,68.70
2023-03-08T04:12:19.498Z,68.38
2023-03-08T04:17:21.226Z,67.44
2023-03-08T04:22:26.847Z,67.55
2023-03-08T04:27:36.193Z,66.55
2023-03-08T04:32:38.121Z,66.61
2023-03-08T04:37:40.803Z,66.53
2023-03-08T04:42:46.523Z,67.14
2023-03-08T04:47:52.008Z,64.28
2023-03-08T04:52:54.905Z,63.84
2023-03-08T04:57:56.700Z,63.43
2023-03-08T05:02:59.562Z,63.08
2023-03-08T05:08:05.256Z,61.00
2023-03-08T05:13:08.798Z,60.95
2023-03-08T05:18:10.702Z,60.75
2023-03-08T05:23:13.520Z,61.39
2023-03-08T05:28:17.034Z,61.50
2023-03-08T05:33:21.124Z,62.54
2023-03-08T05:38:23.205Z,62.80
2023-03-08T05:43:24.927Z,63.04
2023-03-08T05:48:27.004Z,62.96
2023-03-08T05:53:28.793Z,64.06
2023-03-08T05:58:30.889Z,64.37
2023-03-08T06:03:34.999Z,64.60
2023-03-08T06:08:37.292Z,65.07
2023-03-08T06:13:41.717Z,65.11
2023-03-08T06:18:44.243Z,65.03
2023-03-08T06:23:49.034Z,65.08
2023-03-08T06:28:50.956Z,65.09
2023-03-08T06:33:53.179Z,64.53
2023-03-08T06:39:00.052Z,64.01
2023-03-08T06:44:02.186Z,63.57
2023-03-08T06:49:04.331Z,62.60
2023-03-08T06:54:08.128Z,61.99
2023-03-08T06:59:09.856Z,61.03
2023-03-08T07:04:11.771Z,60.31
2023-03-08T07:09:14.012Z,60.13
2023-03-08T07:14:16.294Z,59.49
2023-03-08T07:19:17.893Z,58.62
2023-03-08T07:24:19.687Z,58.69
2023-03-08T07:29:21.332Z,57.71
2023-03-08T07:34:23.138Z,57.63
2023-03-08T07:39:24.804Z,57.80
2023-03-08T07:44:26.420Z,57.19
2023-03-08T07:49:28.209Z,57.26
2023-03-08T07:54:29.974Z,57.28
2023-03-08T07:59:32.133Z,57.71
2023-03-08T08:04:35.749Z,58.41
2023-03-08T08:09:37.645Z,57.85
2023-03-08T08:14:39.265Z,58.01
2023-03-08T08:19:40.896Z,57.33
2023-03-08T08:24:42.570Z,57.60
2023-03-08T08:29:46.280Z,53.93
2023-03-08T08:34:47.952Z,55.54
2023-03-08T08:39:49.576Z,55.31
2023-03-08T08:44:53.303Z,53.55
2023-03-08T08:49:54.944Z,52.52
2023-03-08T08:54:57.902Z,53.49
2023-03-08T08:59:59.599Z,52.88
2023-03-08T09:05:01.270Z,52.08
2023-03-08T09:10:03.236Z,52.00
2023-03-08T09:15:06.220Z,52.23
2023-03-08T09:20:09.624Z,51.93
2023-03-08T09:25:12.189Z,52.28
2023-03-08T09:30:14.784Z,52.37
2023-03-08T09:35:17.164Z,51.94
2023-03-08T09:40:21.277Z,51.26
2023-03-08T09:45:29.624Z,51.12
2023-03-08T09:50:44.273Z,51.09
2023-03-08T09:55:52.821Z,51.16
2023-03-08T10:01:06.523Z,51.84
2023-03-08T10:06:44.163Z,50.42
2023-03-08T10:12:00.686Z,50.15
2023-03-08T10:17:13.001Z,50.58
2023-03-08T10:22:29.807Z,50.06
2023-03-08T10:27:34.766Z,50.37
2023-03-08T10:32:43.820Z,51.04
2023-03-08T10:37:51.003Z,50.31
2023-03-08T10:43:00.925Z,50.38
2023-03-08T10:48:04.997Z,50.15
2023-03-08T10:53:16.045Z,50.74
2023-03-08T10:58:29.701Z,51.01
2023-03-08T11:03:32.388Z,50.68
2023-03-08T11:08:39.913Z,51.43
2023-03-08T11:13:49.556Z,52.31
2023-03-08T11:19:06.618Z,53.74
2023-03-08T11:24:27.550Z,55.64
2023-03-08T11:29:29.135Z,56.28
2023-03-08T11:34:46.337Z,56.69
2023-03-08T11:40:01.307Z,57.38
2023-03-08T11:45:18.635Z,59.05
2023-03-08T11:50:30.489Z,59.66
2023-03-08T11:56:02.165Z,58.11
2023-03-08T12:01:14.942Z,56.94
2023-03-08T12:06:49.311Z,55.65
2023-03-08T12:12:03.429Z,55.01
2023-03-08T12:17:40.976Z,56.82
2023-03-08T12:22:46.006Z,58.93
2023-03-08T12:27:55.778Z,59.92
2023-03-08T12:33:00.154Z,60.41
2023-03-08T12:38:22.131Z,60.38
2023-03-08T12:43:23.718Z,60.15
2023-03-08T12:48:44.503Z,59.67
2023-03-08T12:53:49.088Z,60.27
2023-03-08T12:58:54.717Z,59.53
2023-03-08T13:03:56.645Z,59.67
2023-03-08T13:09:20.694Z,59.91
2023-03-08T13:14:38.236Z,60.33
2023-03-08T13:19:43.001Z,60.35
2023-03-08T13:24:56.389Z,60.50
2023-03-08T13:30:28.244Z,60.82
2023-03-08T13:35:29.927Z,61.53
2023-03-08T13:40:31.711Z,62.03
2023-03-08T13:45:33.398Z,62.54
2023-03-08T13:50:43.439Z,63.32
2023-03-08T13:55:47.873Z,63.56
2023-03-08T14:01:02.539Z,63.97
2023-03-08T14:06:14.765Z,63.95
2023-03-08T14:11:29.499Z,64.24
2023-03-08T14:16:34.310Z,64.50
2023-03-08T14:21:36.220Z,64.34
2023-03-08T14:26:41.047Z,64.41
2023-03-08T14:31:56.743Z,64.67
2023-03-08T14:37:03.049Z,64.61
2023-03-08T14:42:17.338Z,64.88
2023-03-08T14:47:31.170Z,65.47
2023-03-08T14:52:36.290Z,65.66
2023-03-08T14:57:38.126Z,65.70
2023-03-08T15:02:40.692Z,66.25
2023-03-08T15:07:43.736Z,66.15
2023-03-08T15:12:45.433Z,66.05
2023-03-08T15:17:47.666Z,66.24
2023-03-08T15:22:53.241Z,65.97
2023-03-08T15:27:55.203Z,65.53
2023-03-08T15:32:59.441Z,66.10
2023-03-08T15:38:01.248Z,66.19
2023-03-08T15:43:02.892Z,66.46
2023-03-08T15:48:07.148Z,66.54
2023-03-08T15:53:09.960Z,66.05
2023-03-08T15:58:12.133Z,66.13
2023-03-08T16:03:14.483Z,66.36
2023-03-08T16:08:16.105Z,66.06
2023-03-08T16:13:22.027Z,65.39
2023-03-08T16:18:23.780Z,65.31
2023-03-08T16:23:26.143Z,64.81
2023-03-08T16:28:28.581Z,64.98
2023-03-08T16:33:30.300Z,64.97
2023-03-08T16:38:32.090Z,65.34
2023-03-08T16:43:45.787Z,65.07
2023-03-08T16:48:50.263Z,65.46
2023-03-08T16:53:52.185Z,64.90
2023-03-08T16:58:55.407Z,65.10
2023-03-08T17:03:57.836Z,65.30
2023-03-08T17:08:59.624Z,64.84
2023-03-08T17:14:04.076Z,64.64
2023-03-08T17:19:07.529Z,64.43
2023-03-08T17:24:12.789Z,64.35
2023-03-08T17:29:15.100Z,64.17
2023-03-08T17:34:17.878Z,64.50
2023-03-08T17:39:19.925Z,64.60
2023-03-08T17:44:21.549Z,64.79
2023-03-08T17:49:25.015Z,65.22
2023-03-08T17:54:26.653Z,65.44
2023-03-08T17:59:28.486Z,65.22
2023-03-08T18:04:30.233Z,65.76
2023-03-08T18:09:32.427Z,66.19
2023-03-08T18:14:40.036Z,66.42
2023-03-08T18:19:42.991Z,66.75
2023-03-08T18:24:44.987Z,66.81
2023-03-08T18:29:46.669Z,67.35
2023-03-08T18:34:48.412Z,67.21
2023-03-08T18:39:54.638Z,67.43
2023-03-08T18:44:56.672Z,68.14
2023-03-08T18:49:58.309Z,68.65
2023-03-08T18:55:00.041Z,68.84
2023-03-08T19:00:03.020Z,68.43
2023-03-08T19:05:05.116Z,68.58
2023-03-08T19:10:07.058Z,69.19
2023-03-08T19:15:09.534Z,69.02
2023-03-08T19:20:11.788Z,69.14
2023-03-08T19:25:15.930Z,69.23
2023-03-08T19:30:17.927Z,69.74
2023-03-08T19:35:20.836Z,69.71
2023-03-08T19:40:22.642Z,69.14
2023-03-08T19:45:25.459Z,68.87
2023-03-08T19:50:27.822Z,68.44
2023-03-08T19:55:29.462Z,68.59
2023-03-08T20:00:31.126Z,68.52
2023-03-08T20:05:35.317Z,68.55
2023-03-08T20:10:37.404Z,67.84
2023-03-08T20:15:39.111Z,67.33
2023-03-08T20:20:40.896Z,67.57
2023-03-08T20:25:45.658Z,67.27
2023-03-08T20:30:48.349Z,67.06
2023-03-08T20:36:00.526Z,67.08
2023-03-08T20:41:12.243Z,66.71
2023-03-08T20:46:16.943Z,66.97
2023-03-08T20:51:20.911Z,66.56
2023-03-08T20:56:24.630Z,66.43
2023-03-08T21:01:32.175Z,66.65
2023-03-08T21:06:33.933Z,66.44
2023-03-08T21:11:35.668Z,66.04
2023-03-08T21:16:37.562Z,65.86
2023-03-08T21:21:41.512Z,66.33
2023-03-08T21:26:44.309Z,66.41
2023-03-08T21:31:51.446Z,65.79
2023-03-08T21:36:53.117Z,65.34
2023-03-08T21:41:57.102Z,65.20
2023-03-08T21:46:58.893Z,64.82
2023-03-08T21:52:01.175Z,64.54
2023-03-08T21:57:03.050Z,64.38
2023-03-08T22:02:04.979Z,63.33
2023-03-08T22:07:06.690Z,62.90
2023-03-08T22:12:08.682Z,63.76
2023-03-08T22:17:10.356Z,63.76
2023-03-08T22:22:12.147Z,63.72
2023-03-08T22:27:14.405Z,63.75
2023-03-08T22:32:16.108Z,63.85
2023-03-08T22:37:17.886Z,63.71
2023-03-08T22:42:19.548Z,63.76
2023-03-08T22:47:21.218Z,63.76
2023-03-08T22:52:23.546Z,63.53
2023-03-08T22:57:25.284Z,63.37
2023-03-08T23:02:28.451Z,63.68
2023-03-08T23:07:30.544Z,63.29
2023-03-08T23:12:32.329Z,63.26
2023-03-08T23:17:34.267Z,63.58
2023-03-08T23:22:35.925Z,63.77
2023-03-08T23:27:37.564Z,63.86
2023-03-08T23:32:39.503Z,63.70
2023-03-08T23:37:41.393Z,63.54
2023-03-08T23:42:43.060Z,63.59
2023-03-08T23:47:44.656Z,63.81
2023-03-08T23:52:46.401Z,64.08
2023-03-08T23:57:48.023Z,64.41
